Latest Weather Observations for Ballarat

IDV60801

Issued at 8:02 pm EST Saturday 27 August 2016 (issued every 30 minutes, with the page automatically refreshed every 10 minutes)

About weather observations | Map of weather stations | Latest weather observations for VIC | Other Formats
Station Details ID: 089002 Name: BALLARAT AERODROME Lat: -37.51 Lon: 143.79 Height: 435.2 m
Data from the previous 72 hours. | See also: Recent months at Ballarat
Date/Time
EST
Temp
°C
App
Temp
°C
Dew
Point
°C
Rel
Hum
%
Delta-T
°C
Wind Press
QNH
hPa
Press
MSL
hPa
Rain since
9am
mm
Dir  Spd
km/h
Gust
km/h
Spd
kts
Gust
kts
27/08:00pm 7.2 2.3 5.0 86 1.0 N 20 26 11 14 1019.6 1020.3 0.0
27/07:30pm 6.8 2.5 5.1 89 0.8 N 17 20 9 11 1019.4 1020.1 0.0
27/07:00pm 6.6 2.2 4.6 87 0.9 N 17 19 9 10 1019.3 1020.0 0.0
27/06:30pm 6.8 2.0 4.8 87 0.9 N 19 20 10 11 1019.3 1020.0 0.0
27/06:00pm 7.1 2.6 4.4 83 1.2 N 17 20 9 11 1019.1 1019.8 0.0
27/05:30pm 8.6 2.3 3.8 72 2.1 NNW 26 33 14 18 1018.9 1019.6 0.0
27/05:00pm 9.6 2.1 4.4 70 2.4 NNW 33 44 18 24 1018.5 1019.1 0.0
27/04:30pm 9.8 1.9 4.6 70 2.4 NNW 35 46 19 25 1018.7 1019.3 0.0
27/04:00pm 10.5 3.1 5.1 69 2.5 NNW 33 43 18 23 1018.4 1019.0 0.0
27/03:30pm 9.7 2.2 4.7 71 2.3 NNW 33 48 18 26 1018.5 1019.1 0.0
27/03:00pm 11.1 2.9 4.6 64 3.0 NNW 37 46 20 25 1018.5 1019.1 0.0
27/02:30pm 11.2 3.4 5.1 66 2.9 NNW 35 43 19 23 1018.8 1019.5 0.0
27/02:00pm 10.7 3.4 4.6 66 2.8 NNW 32 44 17 24 1018.8 1019.5 0.0
27/01:30pm 10.3 2.8 4.7 68 2.6 NNW 33 43 18 23 1019.3 1020.0 0.0
27/01:00pm 10.8 3.3 4.5 65 2.9 NNW 33 43 18 23 1019.7 1020.4 0.0
27/12:30pm 9.6 2.2 5.0 73 2.1 NW 33 43 18 23 1020.1 1020.8 0.0
27/12:00pm 10.1 2.8 4.5 68 2.6 NNW 32 41 17 22 1020.6 1021.2 0.0
27/11:30am 8.5 1.2 4.7 77 1.7 NW 32 43 17 23 1021.2 1021.9 0.0
27/11:00am 8.5 1.7 5.3 80 1.5 NNW 30 39 16 21 1021.5 1022.2 0.0
27/10:30am 9.0 1.4 5.7 80 1.5 NNW 35 43 19 23 1021.4 1022.1 0.0
27/10:00am 7.8 2.3 5.9 88 0.9 N 24 32 13 17 1021.6 1022.3 0.0
27/09:30am 7.8 2.8 6.4 91 0.7 N 22 28 12 15 1021.8 1022.5 0.0
27/09:00am 7.2 1.9 6.8 97 0.2 N 24 32 13 17 1021.3 1022.0 0.0
27/08:30am 6.1 1.5 5.8 98 0.1 N 19 22 10 12 1021.7 1022.4 0.0
27/08:00am 5.8 1.9 5.5 98 0.1 NNW 15 20 8 11 1021.9 1022.6 0.0
27/07:30am 4.9 0.1 4.9 100 0.0 N 19 22 10 12 1021.9 1022.6 0.0
27/07:00am 4.6 -0.2 4.6 100 0.0 N 19 24 10 13 1021.7 1022.4 0.0
27/06:30am 4.0 -0.5 4.0 100 0.0 N 17 20 9 11 1021.6 1022.3 0.0
27/06:00am 3.4 -0.5 3.4 100 0.0 NNW 13 17 7 9 1021.3 1022.0 0.0
27/05:30am 2.1 -2.8 2.1 100 0.0 N 17 17 9 9 1020.9 1021.6 0.0
27/05:00am 2.1 -2.0 2.1 100 0.0 N 13 15 7 8 1020.9 1021.6 0.0
27/04:30am 2.5 -1.2 2.4 99 0.0 N 11 13 6 7 1020.7 1021.3 0.0
27/04:00am 3.0 -0.6 2.9 99 0.0 N 11 13 6 7 1020.7 1021.3 0.0
27/03:30am 3.4 -0.1 3.3 99 0.0 NNW 11 15 6 8 1020.7 1021.3 0.0
27/03:00am 4.4 1.0 4.1 98 0.1 NNW 11 15 6 8 1020.8 1021.5 0.0
27/02:30am 6.0 2.2 5.7 98 0.1 NNW 15 17 8 9 1021.1 1021.8 0.0
27/02:00am 6.0 2.6 5.7 98 0.1 NW 13 19 7 10 1021.3 1022.0 0.0
27/01:30am 5.9 2.5 5.8 99 0.0 NNW 13 15 7 8 1021.6 1022.3 0.0
27/01:00am 6.1 3.0 5.7 97 0.2 NW 11 15 6 8 1021.6 1022.3 0.0
27/12:30am 6.3 3.1 5.1 92 0.5 NW 11 17 6 9 1021.9 1022.6 0.0
27/12:00am 6.4 3.2 5.2 92 0.5 NW 11 15 6 8 1021.9 1022.6 0.0
 
Date/Time
EST
Temp
°C
App
Temp
°C
Dew
Point
°C
Rel
Hum
%
Delta-T
°C
Wind Press
QNH
hPa
Press
MSL
hPa
Rain since
9am
mm
Dir  Spd
km/h
Gust
km/h
Spd
kts
Gust
kts
26/11:30pm 6.4 2.8 5.0 91 0.6 NNW 13 15 7 8 1021.9 1022.6 0.0
26/11:00pm 6.4 3.1 4.6 88 0.8 NNW 11 15 6 8 1022.0 1022.7 0.0
26/10:30pm 6.0 3.1 4.5 90 0.7 NNW 9 13 5 7 1021.9 1022.6 0.0
26/10:00pm 6.1 2.7 3.8 85 1.0 NNW 11 15 6 8 1021.9 1022.6 0.0
26/09:30pm 5.4 2.5 4.5 94 0.4 N 9 13 5 7 1021.7 1022.4 0.0
26/09:00pm 4.8 1.2 3.1 89 0.7 NNW 11 13 6 7 1021.6 1022.3 0.0
26/08:30pm 6.7 2.9 3.7 81 1.3 NNW 13 17 7 9 1021.6 1022.3 0.0
26/08:00pm 7.2 3.5 4.3 82 1.3 NW 13 17 7 9 1021.7 1022.4 0.0
26/07:30pm 7.1 4.3 5.3 88 0.8 NW 9 11 5 6 1021.7 1022.4 0.0
26/07:00pm 7.4 4.5 4.9 84 1.1 WNW 9 11 5 6 1021.7 1022.4 0.0
26/06:30pm 7.5 4.2 4.8 83 1.2 NW 11 13 6 7 1021.2 1021.9 0.0
26/06:00pm 7.9 4.6 4.3 78 1.6 W 11 13 6 7 1021.1 1021.8 0.0
26/05:30pm 8.0 4.6 4.2 77 1.7 WNW 11 13 6 7 1021.0 1021.7 0.0
26/05:00pm 8.3 4.4 3.2 70 2.2 WNW 13 17 7 9 1020.7 1021.3 0.0
26/04:30pm 8.4 3.7 3.3 70 2.2 WNW 17 19 9 10 1020.4 1021.1 0.0
26/04:00pm 8.5 3.5 3.4 70 2.2 WNW 19 24 10 13 1020.4 1021.1 0.0
26/03:30pm 8.6 3.5 3.2 69 2.4 WNW 19 24 10 13 1020.6 1021.2 0.0
26/03:00pm 8.5 3.8 3.4 70 2.2 W 17 26 9 14 1020.7 1021.3 0.0
26/02:30pm 8.5 3.8 3.4 70 2.2 W 17 26 9 14 1020.7 1021.3 0.0
26/02:00pm 8.7 3.8 4.1 73 2.1 W 19 24 10 13 1020.7 1021.3 0.0
26/01:30pm 8.3 3.0 3.2 70 2.2 W 20 26 11 14 1021.0 1021.7 0.0
26/01:00pm 8.2 3.2 3.5 72 2.1 W 19 24 10 13 1021.3 1022.0 0.0
26/12:30pm 8.2 3.2 3.5 72 2.1 WSW 19 24 10 13 1021.6 1022.3 0.0
26/12:00pm 8.1 3.3 2.8 69 2.3 W 17 22 9 12 1021.8 1022.5 0.0
26/11:30am 8.2 3.8 4.8 79 1.5 W 17 22 9 12 1022.0 1022.7 0.0
26/11:00am 7.6 2.7 5.1 84 1.1 W 20 28 11 15 1022.1 1022.8 0.0
26/10:30am 7.3 2.9 6.4 94 0.4 W 19 28 10 15 1022.0 1022.7 0.0
26/10:09am 6.6 2.5 6.3 98 0.1 W 17 22 9 12 1022.0 1022.7 0.0
26/10:00am 6.6 2.9 6.3 98 0.1 WSW 15 22 8 12 1022.0 1022.7 0.0
26/09:36am 6.6 2.6 6.5 99 0.0 WSW 17 22 9 12 1022.1 1022.8 0.0
26/09:30am 6.6 2.9 6.5 99 0.0 WSW 15 20 8 11 1022.1 1022.8 0.0
26/09:00am 5.3 2.1 5.3 100 0.0 W 11 17 6 9 1022.0 1022.7 3.4
26/08:47am 4.6 0.9 4.6 100 0.0 WNW 13 17 7 9 1021.9 1022.6 3.4
26/08:38am 4.8 1.9 4.8 100 0.0 WNW 9 13 5 7 1021.8 1022.5 3.4
26/08:30am 4.4 1.8 4.4 100 0.0 WNW 7 11 4 6 1021.8 1022.5 3.4
26/08:00am 3.2 0.4 3.2 100 0.0 NNW 7 7 4 4 1021.9 1022.6 3.4
26/07:30am 3.7 1.0 3.7 100 0.0 NW 7 9 4 5 1021.7 1022.4 3.4
26/07:00am 3.8 0.7 3.8 100 0.0 WNW 9 13 5 7 1021.3 1022.0 3.4
26/06:30am 3.8 0.4 3.8 100 0.0 WNW 11 13 6 7 1021.0 1021.7 3.4
26/06:00am 4.0 0.2 4.0 100 0.0 W 13 15 7 8 1020.7 1021.3 3.4
26/05:30am 4.2 0.8 4.2 100 0.0 W 11 13 6 7 1020.3 1021.0 3.4
26/05:22am 4.2 0.5 4.2 100 0.0 WSW 13 19 7 10 1020.2 1020.9 3.4
26/05:00am 4.5 2.0 4.5 100 0.0 WSW 7 9 4 5 1020.0 1020.7 3.4
26/04:57am 4.5 2.0 4.5 100 0.0 WSW 7 11 4 6 1019.9 1020.6 3.4
26/04:50am 4.5 2.0 4.5 100 0.0 WSW 7 11 4 6 1019.9 1020.6 3.4
26/04:30am 4.3 1.7 4.3 100 0.0 WSW 7 9 4 5 1019.6 1020.3 3.2
26/04:01am 4.3 1.7 4.3 100 0.0 WSW 7 11 4 6 1019.5 1020.2 3.2
26/04:00am 4.3 1.7 4.3 100 0.0 WSW 7 11 4 6 1019.5 1020.2 3.2
26/03:30am 4.1 1.7 4.1 100 0.0 WSW 6 7 3 4 1019.5 1020.2 3.2
26/03:16am 4.0 2.7 4.0 100 0.0 CALM 0 4 0 2 1019.5 1020.2 3.2
26/03:00am 3.9 1.4 3.9 100 0.0 WSW 6 7 3 4 1019.5 1020.2 3.2
26/02:41am 3.9 1.2 3.9 100 0.0 W 7 9 4 5 1019.6 1020.3 3.2
26/02:36am 4.0 1.5 4.0 100 0.0 WSW 6 9 3 5 1019.6 1020.3 3.2
26/02:30am 4.0 1.5 4.0 100 0.0 WSW 6 7 3 4 1019.6 1020.3 3.2
26/02:22am 4.0 1.4 4.0 100 0.0 SW 7 9 4 5 1019.6 1020.3 3.0
26/02:11am 4.0 1.0 4.0 100 0.0 SW 9 13 5 7 1019.6 1020.3 3.0
26/02:00am 3.7 0.6 3.7 100 0.0 SW 9 11 5 6 1019.6 1020.3 3.0
26/01:30am 2.9 0.6 2.9 100 0.0 NW 4 9 2 5 1019.7 1020.4 3.0
26/01:08am 2.2 0.6 2.2 100 0.0 CALM 0 6 0 3 1019.7 1020.4 3.0
26/01:00am 2.0 -0.8 2.0 100 0.0 NW 6 7 3 4 1019.8 1020.5 3.0
26/12:57am 1.7 -0.8 1.7 100 0.0 NW 4 7 2 4 1019.8 1020.5 3.0
26/12:30am 2.7 -0.2 2.7 100 0.0 W 7 9 4 5 1019.8 1020.5 3.0
26/12:00am 2.8 1.3 2.8 100 0.0 CALM 0 0 0 0 1019.7 1020.4 3.0
 
Date/Time
EST
Temp
°C
App
Temp
°C
Dew
Point
°C
Rel
Hum
%
Delta-T
°C
Wind Press
QNH
hPa
Press
MSL
hPa
Rain since
9am
mm
Dir  Spd
km/h
Gust
km/h
Spd
kts
Gust
kts
25/11:30pm 3.7 0.6 3.6 99 0.0 SW 9 11 5 6 1019.6 1020.3 3.0
25/11:00pm 3.4 0.6 3.3 99 0.0 SW 7 9 4 5 1019.4 1020.1 3.0
25/10:30pm 4.0 1.0 3.9 99 0.0 SW 9 13 5 7 1019.5 1020.2 3.0
25/10:00pm 4.2 1.2 4.1 99 0.0 SSW 9 13 5 7 1019.4 1020.1 3.0
25/09:30pm 4.2 1.6 4.1 99 0.0 SSW 7 13 4 7 1019.2 1019.9 3.0
25/09:00pm 4.4 0.7 4.3 99 0.0 S 13 17 7 9 1018.9 1019.6 3.0
25/08:30pm 4.9 2.0 4.6 98 0.1 SSW 9 15 5 8 1018.8 1019.5 3.0
25/08:00pm 5.3 2.5 5.0 98 0.1 SSW 9 13 5 7 1018.7 1019.3 3.0
25/07:30pm 5.5 2.8 5.4 99 0.0 SSW 9 13 5 7 1018.4 1019.0 3.0
25/07:00pm 5.9 3.2 5.6 98 0.1 SW 9 13 5 7 1018.0 1018.7 3.0
25/06:30pm 6.3 3.6 5.7 96 0.3 SW 9 15 5 8 1017.6 1018.3 3.0
25/06:00pm 7.0 3.4 4.8 86 1.0 SW 13 19 7 10 1017.2 1017.9 3.0
25/05:30pm 7.8 3.2 5.8 87 0.9 SW 19 26 10 14 1016.9 1017.6 3.0
25/05:00pm 7.9 4.5 5.9 87 0.9 SSW 13 20 7 11 1016.5 1017.1 3.0
25/04:30pm 8.6 2.9 4.8 77 1.7 SSW 24 35 13 19 1016.3 1016.9 3.0
25/04:00pm 8.6 4.1 6.2 85 1.1 S 19 26 10 14 1016.0 1016.6 3.0
25/03:30pm 10.0 5.3 6.2 77 1.8 WSW 20 28 11 15 1015.7 1016.3 2.6
25/03:00pm 9.6 4.5 4.2 69 2.4 SSW 20 30 11 16 1015.7 1016.3 2.6
25/02:30pm 9.6 4.9 5.2 74 2.0 SW 19 30 10 16 1015.4 1016.1 2.6
25/02:00pm 8.3 3.9 6.6 89 0.8 SW 19 28 10 15 1015.3 1016.0 2.6
25/01:30pm 6.6 2.0 6.3 98 0.1 SW 20 35 11 19 1015.8 1016.4 2.6
25/01:00pm 7.2 4.8 6.9 98 0.1 SSE 9 15 5 8 1015.5 1016.2 2.2
25/12:59pm 7.1 4.7 6.8 98 0.1 SSE 9 15 5 8 1015.5 1016.2 2.2
25/12:41pm 5.7 0.4 5.1 96 0.3 S 22 35 12 19 1015.9 1016.5 1.8
25/12:30pm 8.1 4.2 7.2 94 0.4 SW 17 22 9 12 1015.8 1016.4 0.8
25/12:00pm 8.5 3.7 4.9 78 1.6 SSW 19 30 10 16 1015.9 1016.5 0.6
25/11:30am 7.4 2.8 3.6 77 1.7 SSW 17 28 9 15 1015.9 1016.5 0.6
25/11:00am 7.5 2.4 4.1 79 1.5 SW 20 28 11 15 1015.8 1016.4 0.6
25/10:30am 7.1 1.8 4.8 85 1.0 SW 22 33 12 18 1015.5 1016.2 0.6
25/10:03am 6.4 2.3 6.1 98 0.1 SW 17 24 9 13 1015.3 1016.0 0.6
25/10:00am 6.7 2.7 6.6 99 0.0 SW 17 26 9 14 1015.3 1016.0 0.6
25/09:45am 6.0 2.2 5.9 99 0.0 SSW 15 22 8 12 1015.3 1016.0 0.6
25/09:44am 6.0 2.2 5.9 99 0.0 SW 15 22 8 12 1015.3 1016.0 0.6
25/09:30am 5.3 1.4 5.3 100 0.0 SW 15 24 8 13 1015.3 1016.0 0.6
25/09:00am 5.0 1.0 5.0 100 0.0 WSW 15 20 8 11 1015.2 1015.9 1.2
25/08:38am 4.7 0.7 4.7 100 0.0 SW 15 22 8 12 1015.0 1015.7 1.2
25/08:30am 4.3 -0.2 4.3 100 0.0 SW 17 24 9 13 1015.0 1015.7 1.2
25/08:00am 4.3 0.6 4.3 100 0.0 WSW 13 20 7 11 1014.6 1015.2 1.2
25/07:41am 3.8 0.7 3.8 100 0.0 SW 9 13 5 7 1014.2 1014.8 1.2
25/07:30am 3.6 0.9 3.6 100 0.0 WSW 7 11 4 6 1014.2 1014.8 1.2
25/07:13am 3.3 0.5 3.3 100 0.0 SW 7 9 4 5 1014.2 1014.8 1.2
25/07:00am 3.1 -0.1 3.1 100 0.0 WSW 9 13 5 7 1014.1 1014.7 1.2
25/06:30am 3.2 0.0 3.2 100 0.0 WSW 9 11 5 6 1013.8 1014.4 1.2
25/06:28am 3.3 0.1 3.3 100 0.0 WSW 9 11 5 6 1013.8 1014.4 1.2
25/06:00am 3.9 0.5 3.9 100 0.0 SW 11 17 6 9 1013.6 1014.2 1.2
25/05:32am 4.0 1.4 4.0 100 0.0 SW 7 9 4 5 1013.3 1013.9 1.2
25/05:30am 4.0 1.4 4.0 100 0.0 SW 7 9 4 5 1013.3 1013.9 1.2
25/05:17am 4.0 1.0 4.0 100 0.0 SW 9 13 5 7 1013.1 1013.8 1.2
25/05:00am 4.1 0.7 4.1 100 0.0 SW 11 17 6 9 1013.0 1013.7 1.2
25/04:30am 4.1 0.0 4.1 100 0.0 WSW 15 22 8 12 1012.9 1013.5 1.2
25/04:00am 4.1 -0.4 4.1 100 0.0 WSW 17 22 9 12 1012.7 1013.3 1.2
25/03:39am 4.2 0.5 4.2 100 0.0 WSW 13 19 7 10 1012.7 1013.3 1.2
25/03:30am 4.1 1.1 4.1 100 0.0 SW 9 15 5 8 1012.7 1013.3 1.0
25/03:20am 3.9 0.9 3.9 100 0.0 SW 9 13 5 7 1012.8 1013.4 1.0
25/03:12am 3.9 0.9 3.9 100 0.0 SW 9 13 5 7 1012.9 1013.5 1.0
25/03:00am 3.8 1.1 3.8 100 0.0 SW 7 9 4 5 1012.9 1013.5 1.0
25/02:38am 3.7 1.0 3.7 100 0.0 SSW 7 11 4 6 1013.1 1013.8 1.0
25/02:30am 3.7 0.6 3.7 100 0.0 SW 9 15 5 8 1013.1 1013.8 1.0
25/02:14am 3.6 0.5 3.6 100 0.0 SW 9 17 5 9 1013.3 1013.9 1.0
25/02:00am 3.6 0.9 3.6 100 0.0 SSW 7 13 4 7 1013.3 1013.9 1.0
25/01:30am 3.4 0.6 3.4 100 0.0 SSW 7 11 4 6 1013.6 1014.2 1.0
25/01:00am 3.9 0.9 3.9 100 0.0 SW 9 13 5 7 1013.7 1014.3 1.0
25/12:30am 4.0 1.0 4.0 100 0.0 SW 9 13 5 7 1013.8 1014.4 1.0
25/12:05am 3.9 0.9 3.9 100 0.0 SW 9 13 5 7 1013.8 1014.4 1.0
25/12:00am 3.9 0.9 3.9 100 0.0 SW 9 13 5 7 1013.8 1014.4 1.0
 
Date/Time
EST
Temp
°C
App
Temp
°C
Dew
Point
°C
Rel
Hum
%
Delta-T
°C
Wind Press
QNH
hPa
Press
MSL
hPa
Rain since
9am
mm
Dir  Spd
km/h
Gust
km/h
Spd
kts
Gust
kts
24/11:30pm 4.2 0.5 4.2 100 0.0 SSW 13 17 7 9 1013.8 1014.4 1.0
24/11:24pm 4.2 0.5 4.2 100 0.0 SSW 13 17 7 9 1013.9 1014.5 1.0
24/11:00pm 4.1 0.7 4.1 100 0.0 SSW 11 15 6 8 1013.9 1014.5 1.0
24/10:30pm 4.5 1.2 4.5 100 0.0 S 11 17 6 9 1014.0 1014.6 1.0
24/10:00pm 5.1 1.9 5.1 100 0.0 S 11 15 6 8 1014.0 1014.6 1.0
24/09:30pm 5.3 1.8 5.3 100 0.0 S 13 17 7 9 1014.1 1014.7 1.0
24/09:27pm 5.3 1.8 5.3 100 0.0 S 13 17 7 9 1014.1 1014.7 1.0
24/09:11pm 5.3 1.8 5.3 100 0.0 S 13 20 7 11 1014.2 1014.8 1.0
24/09:00pm 5.3 1.0 5.3 100 0.0 S 17 22 9 12 1014.2 1014.8 1.0
24/08:30pm 5.4 1.1 5.4 100 0.0 S 17 22 9 12 1014.2 1014.8 1.0
24/08:26pm 5.4 1.5 5.4 100 0.0 S 15 22 8 12 1014.2 1014.8 1.0
24/08:15pm 5.4 1.5 5.4 100 0.0 S 15 20 8 11 1014.2 1014.8 1.0

Other Formats:

Comma delimited format used in spreadsheet applications
http://www.bom.gov.au/fwo/IDV60801/IDV60801.94852.axf

JavaScript Object Notation format (JSON) in row-major order
http://www.bom.gov.au/fwo/IDV60801/IDV60801.94852.json